Time;durP1;ratioP1;P1;durP2;ratioP2;P2;SDS_P1;SDS_P2;PMS_P1;PMS_P2;Temp;Humidity;BMP_temperature;BMP_pressure;BME280_temperature;BME280_humidity;BME280_pressure;Samples;Min_cycle;Max_cycle;Signal;HPM_P1;HPM_P2
2022/04/30 00:01:51;;;;;;;12.52;8.80;;;;;;;4.42;100.00;102821.50;5300402;28;41651;-75
2022/04/30 00:04:23;;;;;;;15.23;9.52;;;;;;;4.51;100.00;102821.19;5305366;28;20039;-76
2022/04/30 00:06:54;;;;;;;15.20;9.18;;;;;;;4.51;100.00;102824.69;5308769;27;20047;-76
2022/04/30 00:09:25;;;;;;;11.55;8.48;;;;;;;4.45;100.00;102821.41;5305467;28;20055;-76
2022/04/30 00:11:57;;;;;;;13.45;8.15;;;;;;;4.54;100.00;102827.22;5308129;27;20016;-75
2022/04/30 00:14:29;;;;;;;12.85;7.55;;;;;;;4.79;100.00;102817.56;5306161;27;20085;-75
2022/04/30 00:17:00;;;;;;;11.43;8.55;;;;;;;4.58;100.00;102822.69;5301879;27;20020;-76
2022/04/30 00:19:32;;;;;;;14.52;8.30;;;;;;;4.72;100.00;102830.13;5302539;28;20052;-75
2022/04/30 00:22:04;;;;;;;12.77;7.95;;;;;;;4.74;100.00;102815.06;5306342;27;20169;-75
2022/04/30 00:24:35;;;;;;;10.45;8.00;;;;;;;4.68;100.00;102817.91;5301888;28;20119;-75
2022/04/30 00:27:06;;;;;;;10.43;7.55;;;;;;;4.64;100.00;102817.16;5303161;27;20052;-75
2022/04/30 00:29:38;;;;;;;15.60;7.95;;;;;;;4.60;100.00;102818.22;5302856;28;20452;-75
2022/04/30 00:32:09;;;;;;;10.05;7.00;;;;;;;4.61;100.00;102819.94;5295921;28;20025;-75
2022/04/30 00:34:40;;;;;;;7.70;6.07;;;;;;;4.55;100.00;102828.09;5302534;27;20604;-75
2022/04/30 00:37:12;;;;;;;9.98;7.50;;;;;;;4.50;100.00;102822.09;5302690;28;20016;-75
2022/04/30 00:39:43;;;;;;;11.15;7.28;;;;;;;4.37;100.00;102821.69;5306119;27;20024;-75
2022/04/30 00:42:15;;;;;;;13.07;6.97;;;;;;;4.26;100.00;102813.25;5302047;28;20095;-75
2022/04/30 00:44:47;;;;;;;10.45;7.18;;;;;;;4.32;100.00;102815.69;5299595;28;20086;-75
2022/04/30 00:47:19;;;;;;;10.40;6.60;;;;;;;4.31;100.00;102819.25;5303150;27;20029;-75
2022/04/30 00:49:50;;;;;;;11.32;7.55;;;;;;;4.21;100.00;102815.19;5302218;28;20020;-75
2022/04/30 00:52:25;;;;;;;11.02;6.78;;;;;;;4.22;100.00;102806.34;5304143;28;20020;-75
2022/04/30 00:55:02;;;;;;;9.48;6.60;;;;;;;4.16;100.00;102812.72;5305865;28;20024;-75
2022/04/30 00:57:36;;;;;;;10.95;7.05;;;;;;;3.96;100.00;102800.16;5306990;27;20083;-75
2022/04/30 01:00:08;;;;;;;10.95;7.10;;;;;;;3.92;100.00;102796.78;5299964;28;20103;-75
2022/04/30 01:02:40;;;;;;;10.68;6.85;;;;;;;3.92;100.00;102804.69;5304572;28;20020;-75
2022/04/30 01:05:11;;;;;;;11.20;7.00;;;;;;;3.71;100.00;102800.13;5306006;27;20556;-75
2022/04/30 01:07:42;;;;;;;11.80;7.13;;;;;;;3.82;100.00;102807.69;5305154;27;20074;-75
2022/04/30 01:10:13;;;;;;;11.93;6.50;;;;;;;3.79;100.00;102808.69;5299071;28;20047;-75
2022/04/30 01:12:46;;;;;;;11.63;7.07;;;;;;;3.70;100.00;102803.66;5305265;28;20036;-75
2022/04/30 01:15:19;;;;;;;11.82;7.35;;;;;;;3.65;100.00;102803.84;5300620;28;20032;-75
2022/04/30 01:17:51;;;;;;;10.90;7.32;;;;;;;3.59;100.00;102797.00;5307871;27;20055;-75
2022/04/30 01:20:22;;;;;;;11.57;7.45;;;;;;;3.75;100.00;102797.34;5298407;27;20043;-75
2022/04/30 01:23:00;;;;;;;8.82;6.35;;;;;;;3.55;100.00;102805.03;5302351;28;20028;-75
2022/04/30 01:25:32;;;;;;;11.07;6.72;;;;;;;3.59;100.00;102796.09;5306859;27;20036;-75
2022/04/30 01:28:05;;;;;;;9.48;6.47;;;;;;;3.62;100.00;102797.81;5299904;28;20040;-77
2022/04/30 01:30:36;;;;;;;13.57;8.05;;;;;;;3.65;100.00;102795.06;5297069;28;20025;-75
2022/04/30 01:38:47;;;;;;;12.75;7.55;;;;;;;3.94;100.00;102794.09;5296056;28;20191;-75
2022/04/30 01:41:18;;;;;;;12.15;6.93;;;;;;;4.05;100.00;102791.06;5299120;28;20239;-75
2022/04/30 01:43:50;;;;;;;10.10;7.72;;;;;;;3.94;100.00;102800.25;5304731;28;20021;-75
2022/04/30 01:46:21;;;;;;;10.88;7.60;;;;;;;3.73;100.00;102788.59;5299815;27;20029;-75
2022/04/30 01:48:53;;;;;;;18.58;7.97;;;;;;;3.74;100.00;102794.75;5305842;28;20051;-75
2022/04/30 01:51:24;;;;;;;14.57;8.00;;;;;;;3.69;100.00;102791.41;5300318;27;20037;-75
2022/04/30 01:53:56;;;;;;;12.73;7.15;;;;;;;3.61;100.00;102778.44;5320385;27;20737;-75
2022/04/30 01:56:27;;;;;;;13.45;7.97;;;;;;;3.52;100.00;102787.53;5296603;27;20036;-75
2022/04/30 01:58:59;;;;;;;14.40;7.90;;;;;;;3.45;100.00;102791.25;5303629;27;20036;-75
2022/04/30 02:01:32;;;;;;;11.27;7.43;;;;;;;3.34;100.00;102782.84;5295851;28;20044;-75
2022/04/30 02:04:05;;;;;;;9.57;7.47;;;;;;;3.31;100.00;102782.94;5301345;28;20048;-75
2022/04/30 02:06:37;;;;;;;11.75;8.38;;;;;;;3.20;100.00;102778.84;5301984;28;20029;-75
2022/04/30 02:09:09;;;;;;;11.90;8.90;;;;;;;3.22;100.00;102773.53;5302147;28;21123;-75
2022/04/30 02:11:42;;;;;;;12.65;8.25;;;;;;;3.24;100.00;102781.41;5302362;27;20031;-75
2022/04/30 02:14:15;;;;;;;15.20;7.78;;;;;;;3.19;100.00;102773.63;5299298;28;20051;-75
2022/04/30 02:16:47;;;;;;;13.75;7.90;;;;;;;3.02;100.00;102769.72;5298114;28;20353;-75
2022/04/30 02:19:21;;;;;;;11.40;8.10;;;;;;;3.10;100.00;102772.13;5303692;27;20083;-75
2022/04/30 02:21:52;;;;;;;13.35;8.30;;;;;;;3.16;100.00;102771.09;5300613;28;20021;-75
2022/04/30 02:24:28;;;;;;;15.05;9.02;;;;;;;3.14;100.00;102775.56;5301960;28;20445;-75
2022/04/30 02:26:59;;;;;;;13.40;8.90;;;;;;;3.18;100.00;102771.91;5302124;28;20053;-75
2022/04/30 02:29:31;;;;;;;11.15;8.05;;;;;;;3.41;100.00;102776.47;5307797;28;20552;-75
2022/04/30 02:32:02;;;;;;;15.35;9.30;;;;;;;3.22;100.00;102766.47;5308074;28;20473;-75
2022/04/30 02:34:35;;;;;;;14.65;8.85;;;;;;;3.22;100.00;102762.97;5306238;27;20104;-75
2022/04/30 02:37:06;;;;;;;18.13;8.85;;;;;;;3.25;100.00;102762.88;5309137;28;20482;-75
2022/04/30 02:39:37;;;;;;;11.52;7.90;;;;;;;3.35;100.00;102764.34;5307588;27;20029;-75
2022/04/30 02:42:10;;;;;;;15.45;10.27;;;;;;;2.95;100.00;102768.19;5307553;28;20108;-75
2022/04/30 02:44:41;;;;;;;16.30;10.30;;;;;;;3.00;100.00;102762.78;5306801;27;20032;-75
2022/04/30 02:47:13;;;;;;;15.93;9.73;;;;;;;2.98;100.00;102762.84;5303051;28;20907;-75
2022/04/30 02:49:44;;;;;;;12.93;8.57;;;;;;;2.96;100.00;102758.50;5302898;27;20482;-75
2022/04/30 02:52:16;;;;;;;15.15;10.80;;;;;;;2.86;100.00;102760.56;5298520;28;20033;-75
2022/04/30 02:54:47;;;;;;;15.88;9.80;;;;;;;2.88;100.00;102758.75;5304887;28;20032;-75
2022/04/30 02:57:18;;;;;;;19.25;10.82;;;;;;;2.82;100.00;102754.53;5303214;28;20035;-75
2022/04/30 02:59:55;;;;;;;22.48;10.15;;;;;;;2.89;100.00;102762.22;5301596;28;20025;-75
2022/04/30 03:02:28;;;;;;;18.58;10.98;;;;;;;2.82;100.00;102753.63;5305346;28;20024;-75
2022/04/30 03:04:59;;;;;;;17.00;10.65;;;;;;;2.74;100.00;102763.56;5302976;28;20032;-75
2022/04/30 03:07:31;;;;;;;17.63;10.23;;;;;;;2.73;100.00;102760.03;5302902;28;20057;-75
2022/04/30 03:10:02;;;;;;;20.88;11.80;;;;;;;2.77;100.00;102763.44;5300536;28;41824;-75
2022/04/30 03:12:34;;;;;;;16.17;11.13;;;;;;;2.72;100.00;102763.59;5305283;28;20044;-75
2022/04/30 03:15:07;;;;;;;19.50;11.40;;;;;;;2.76;100.00;102759.09;5305065;28;20081;-75
2022/04/30 03:23:18;;;;;;;18.17;11.40;;;;;;;2.50;100.00;102755.44;5300552;28;20025;-75
2022/04/30 03:25:49;;;;;;;15.93;10.95;;;;;;;2.56;100.00;102757.91;5303245;28;20362;-75
2022/04/30 03:28:20;;;;;;;23.15;10.50;;;;;;;2.53;100.00;102755.34;5300229;28;20016;-75
2022/04/30 03:30:52;;;;;;;19.40;11.43;;;;;;;2.59;100.00;102746.41;5304703;28;20028;-75
2022/04/30 03:33:23;;;;;;;24.30;12.15;;;;;;;2.43;100.00;102743.34;5302485;28;24882;-75
2022/04/30 03:35:55;;;;;;;22.88;12.80;;;;;;;2.57;100.00;102748.22;5304380;28;20090;-75
2022/04/30 03:38:26;;;;;;;19.15;13.13;;;;;;;2.43;100.00;102740.72;5307696;27;20031;-75
2022/04/30 03:40:57;;;;;;;19.65;12.77;;;;;;;2.57;100.00;102741.19;5305010;28;20077;-75
2022/04/30 03:43:30;;;;;;;17.65;12.07;;;;;;;2.42;100.00;102729.31;5301031;27;20029;-75
2022/04/30 03:46:01;;;;;;;27.73;13.48;;;;;;;2.47;100.00;102737.06;5302709;28;20099;-75
2022/04/30 03:48:33;;;;;;;18.25;12.07;;;;;;;2.44;100.00;102737.19;5309279;27;20050;-75
2022/04/30 03:51:05;;;;;;;18.75;12.13;;;;;;;2.22;100.00;102736.91;5306802;28;20029;-75
2022/04/30 03:53:37;;;;;;;18.95;10.95;;;;;;;2.27;100.00;102735.00;5311488;27;20483;-75
2022/04/30 03:56:08;;;;;;;21.90;11.70;;;;;;;2.20;100.00;102726.41;5303861;28;20039;-75
2022/04/30 03:58:39;;;;;;;21.65;12.30;;;;;;;2.05;100.00;102740.00;5304614;27;20135;-75
2022/04/30 04:01:11;;;;;;;22.67;13.07;;;;;;;2.12;100.00;102743.31;5307499;28;20016;-75
2022/04/30 04:03:42;;;;;;;18.35;12.10;;;;;;;2.08;100.00;102745.19;5302167;28;20025;-75
2022/04/30 04:06:15;;;;;;;17.58;11.98;;;;;;;1.95;100.00;102739.38;5305295;28;20031;-75
2022/04/30 04:08:52;;;;;;;19.33;12.23;;;;;;;2.13;100.00;102751.19;5305007;27;20040;-75
2022/04/30 04:11:24;;;;;;;16.10;9.52;;;;;;;1.92;100.00;102744.72;5305143;28;20032;-75
2022/04/30 04:19:35;;;;;;;24.50;13.52;;;;;;;1.95;100.00;102743.78;5302233;28;20044;-75
2022/04/30 04:22:06;;;;;;;20.60;10.88;;;;;;;2.07;100.00;102749.59;5302200;28;20035;-75
2022/04/30 04:27:29;;;;;;;25.10;12.63;;;;;;;1.92;100.00;102743.88;5303690;28;20123;-75
2022/04/30 04:30:00;;;;;;;27.10;13.38;;;;;;;1.74;100.00;102738.16;5304991;27;20329;-75
2022/04/30 04:32:31;;;;;;;22.25;13.32;;;;;;;1.82;100.00;102749.38;5307284;28;20039;-75
2022/04/30 04:35:03;;;;;;;21.40;13.40;;;;;;;1.88;100.00;102753.59;5300686;27;20028;-75
2022/04/30 04:37:35;;;;;;;17.38;10.25;;;;;;;1.99;100.00;102745.44;5297374;28;20432;-75
2022/04/30 04:40:08;;;;;;;27.63;13.77;;;;;;;1.90;100.00;102757.06;5302229;27;20031;-75
2022/04/30 04:42:40;;;;;;;27.80;14.05;;;;;;;1.88;100.00;102756.25;5306272;28;20036;-75
2022/04/30 04:45:12;;;;;;;22.88;13.90;;;;;;;1.94;100.00;102756.06;5301516;27;20111;-75
2022/04/30 04:47:49;;;;;;;25.38;13.50;;;;;;;2.20;100.00;102759.78;5298763;28;20036;-75
2022/04/30 04:50:23;;;;;;;18.05;10.50;;;;;;;2.34;100.00;102757.63;5295331;28;20031;-75
2022/04/30 04:52:54;;;;;;;18.60;11.88;;;;;;;2.35;100.00;102761.13;5302645;27;20375;-75
2022/04/30 04:55:25;;;;;;;24.95;13.52;;;;;;;2.46;100.00;102762.56;5300377;28;20082;-75
2022/04/30 04:57:57;;;;;;;29.95;15.20;;;;;;;2.75;100.00;102770.53;5299401;28;20052;-75
2022/04/30 05:00:28;;;;;;;25.30;14.10;;;;;;;2.82;100.00;102774.72;5301127;28;20479;-75
2022/04/30 05:02:59;;;;;;;25.13;13.68;;;;;;;3.03;100.00;102787.28;5295760;28;20595;-75
2022/04/30 05:05:30;;;;;;;30.65;14.50;;;;;;;3.11;100.00;102778.28;5304679;28;39996;-75
2022/04/30 05:08:02;;;;;;;34.90;15.52;;;;;;;3.27;100.00;102781.31;5301300;28;20029;-75
2022/04/30 05:10:35;;;;;;;26.52;14.85;;;;;;;3.27;100.00;102795.34;5306994;28;20028;-75
2022/04/30 05:13:06;;;;;;;26.05;15.00;;;;;;;3.18;100.00;102788.59;5301725;28;20063;-75
2022/04/30 05:15:38;;;;;;;30.42;16.98;;;;;;;3.42;100.00;102786.13;5300013;28;20033;-75
2022/04/30 05:18:09;;;;;;;34.45;17.83;;;;;;;3.85;100.00;102800.53;5303745;28;20141;-75
2022/04/30 05:20:40;;;;;;;30.13;18.00;;;;;;;4.07;100.00;102794.56;5304431;28;20024;-76
2022/04/30 05:23:12;;;;;;;34.08;17.10;;;;;;;4.12;100.00;102779.38;5300334;28;20086;-76
2022/04/30 05:25:43;;;;;;;35.40;18.00;;;;;;;4.34;100.00;102785.66;5302152;28;20032;-76
2022/04/30 05:28:15;;;;;;;31.20;16.70;;;;;;;4.55;100.00;102794.59;5303862;28;20028;-76
2022/04/30 05:30:47;;;;;;;27.50;16.48;;;;;;;4.71;100.00;102789.59;5301156;28;20049;-76
2022/04/30 05:33:19;;;;;;;34.42;17.20;;;;;;;4.80;100.00;102785.75;5299916;28;20418;-76
2022/04/30 05:35:50;;;;;;;28.30;16.92;;;;;;;4.96;100.00;102795.75;5296288;28;20048;-76
2022/04/30 05:38:21;;;;;;;26.05;14.93;;;;;;;5.34;100.00;102796.06;5302270;28;20036;-75
2022/04/30 05:40:53;;;;;;;25.98;15.57;;;;;;;5.51;100.00;102798.91;5295445;28;20032;-76
2022/04/30 05:43:24;;;;;;;22.15;13.55;;;;;;;5.74;100.00;102800.59;5300454;28;20475;-75
2022/04/30 05:45:55;;;;;;;24.50;15.90;;;;;;;5.51;100.00;102784.81;5296698;28;20016;-75
2022/04/30 05:48:27;;;;;;;25.65;15.38;;;;;;;5.65;100.00;102795.69;5302059;28;20470;-75
2022/04/30 05:50:58;;;;;;;25.95;13.82;;;;;;;5.81;100.00;102785.34;5300971;27;20032;-75
2022/04/30 05:53:29;;;;;;;18.67;12.65;;;;;;;6.01;100.00;102790.69;5299598;28;20059;-74
2022/04/30 05:56:01;;;;;;;18.90;12.27;;;;;;;6.38;100.00;102797.06;5301374;28;20077;-76
2022/04/30 05:58:33;;;;;;;15.95;11.98;;;;;;;6.80;100.00;102795.16;5293258;28;20124;-75
2022/04/30 06:01:05;;;;;;;18.08;11.40;;;;;;;7.15;100.00;102793.56;5300681;28;20054;-76
2022/04/30 06:03:36;;;;;;;16.52;10.60;;;;;;;7.43;100.00;102799.31;5303211;28;20025;-75
2022/04/30 06:06:07;;;;;;;14.35;10.25;;;;;;;7.81;100.00;102805.41;5304045;28;20458;-76
2022/04/30 06:08:39;;;;;;;14.48;10.40;;;;;;;8.19;100.00;102788.44;5302641;28;20032;-76
2022/04/30 06:11:10;;;;;;;13.80;10.20;;;;;;;8.44;100.00;102798.72;5302787;28;20440;-76
2022/04/30 06:13:41;;;;;;;15.48;9.85;;;;;;;8.76;100.00;102790.81;5306519;28;20039;-76
2022/04/30 06:16:13;;;;;;;12.52;9.50;;;;;;;8.95;100.00;102794.19;5299771;27;20153;-76
2022/04/30 06:18:44;;;;;;;10.18;8.93;;;;;;;9.13;100.00;102784.31;5297476;28;20033;-76
2022/04/30 06:21:15;;;;;;;11.00;8.77;;;;;;;9.46;100.00;102788.69;5304540;28;20035;-76
2022/04/30 06:23:46;;;;;;;10.05;8.52;;;;;;;9.74;100.00;102787.97;5295903;28;20051;-76
2022/04/30 06:26:18;;;;;;;11.95;8.25;;;;;;;9.87;100.00;102792.56;5305057;28;20059;-76
2022/04/30 06:28:49;;;;;;;13.38;8.80;;;;;;;9.97;100.00;102788.41;5304337;28;20039;-76
2022/04/30 06:31:22;;;;;;;9.40;7.43;;;;;;;10.69;100.00;102784.06;5302213;28;20029;-75
2022/04/30 06:33:56;;;;;;;14.10;8.30;;;;;;;10.87;100.00;102782.06;5304240;28;20727;-75
2022/04/30 06:36:28;;;;;;;11.38;7.60;;;;;;;11.27;100.00;102787.53;5303069;28;20864;-76
2022/04/30 06:38:59;;;;;;;9.02;7.40;;;;;;;11.75;100.00;102794.22;5302770;28;20040;-76
2022/04/30 06:41:30;;;;;;;9.32;7.75;;;;;;;11.73;100.00;102788.97;5303745;28;20111;-76
2022/04/30 06:44:02;;;;;;;10.05;7.63;;;;;;;12.09;100.00;102780.28;5303494;28;20017;-76
2022/04/30 06:46:33;;;;;;;8.40;7.03;;;;;;;12.28;100.00;102779.03;5304604;28;20120;-76
2022/04/30 06:49:04;;;;;;;13.40;7.40;;;;;;;12.67;100.00;102771.84;5304189;28;20040;-76
2022/04/30 06:51:35;;;;;;;6.90;6.20;;;;;;;12.75;100.00;102774.84;5303880;28;20485;-76
2022/04/30 06:57:11;;;;;;;7.90;6.43;;;;;;;13.36;100.00;102774.06;5302179;28;20119;-77
2022/04/30 06:59:44;;;;;;;8.70;6.05;;;;;;;13.59;100.00;102778.56;5303504;28;20498;-76
2022/04/30 07:02:21;;;;;;;9.60;5.70;;;;;;;14.02;100.00;102781.63;5304986;28;20070;-77
2022/04/30 07:04:54;;;;;;;6.03;5.45;;;;;;;14.78;100.00;102776.59;5302484;28;20025;-76
2022/04/30 07:07:25;;;;;;;12.50;5.82;;;;;;;14.93;100.00;102783.44;5304897;28;20466;-77
2022/04/30 07:09:56;;;;;;;8.63;5.85;;;;;;;15.52;100.00;102774.16;5298214;28;20499;-76
2022/04/30 07:12:28;;;;;;;6.00;5.45;;;;;;;15.69;100.00;102778.97;5298737;28;20023;-77
2022/04/30 07:14:59;;;;;;;10.10;6.28;;;;;;;15.87;100.00;102781.97;5303294;28;20364;-77
2022/04/30 07:17:30;;;;;;;6.47;5.63;;;;;;;16.13;100.00;102775.31;5299141;28;20130;-76
2022/04/30 07:20:01;;;;;;;8.70;5.75;;;;;;;16.63;100.00;102783.53;5304360;28;20029;-77
2022/04/30 07:22:33;;;;;;;8.00;5.57;;;;;;;16.90;100.00;102780.28;5303780;28;20036;-76
2022/04/30 07:25:06;;;;;;;8.32;5.00;;;;;;;16.86;100.00;102784.22;5297922;28;20037;-77
2022/04/30 07:27:37;;;;;;;7.10;4.75;;;;;;;17.98;90.13;102781.25;5302718;28;20028;-77
2022/04/30 07:30:08;;;;;;;6.65;4.78;;;;;;;17.89;93.20;102784.81;5278906;28;20041;-77
2022/04/30 07:32:40;;;;;;;5.15;4.47;;;;;;;18.57;86.02;102779.25;5293108;28;20052;-76
2022/04/30 07:35:11;;;;;;;6.53;4.65;;;;;;;18.20;85.26;102776.50;5299393;28;20082;-76
2022/04/30 07:37:43;;;;;;;6.15;4.05;;;;;;;18.43;74.59;102772.47;5302553;28;20032;-76
2022/04/30 07:40:14;;;;;;;8.57;4.63;;;;;;;17.67;70.92;102767.03;5303073;28;20016;-76
2022/04/30 07:42:45;;;;;;;5.53;4.07;;;;;;;18.04;72.54;102777.97;5300983;28;20025;-75
2022/04/30 07:45:16;;;;;;;5.43;4.40;;;;;;;17.58;71.02;102771.44;5303109;28;20793;-76
2022/04/30 07:47:48;;;;;;;7.47;4.30;;;;;;;17.74;81.82;102766.34;5301941;28;20028;-76
2022/04/30 07:50:19;;;;;;;5.85;4.32;;;;;;;18.84;71.64;102761.38;5303175;28;20047;-76
2022/04/30 07:52:51;;;;;;;7.30;3.78;;;;;;;19.28;59.45;102758.81;5303636;28;20033;-76
2022/04/30 07:55:23;;;;;;;6.20;3.78;;;;;;;19.61;56.94;102759.97;5306792;28;20116;-77
2022/04/30 07:57:54;;;;;;;7.50;4.10;;;;;;;18.64;58.32;102753.31;5302724;28;20048;-76
2022/04/30 08:00:26;;;;;;;6.70;4.18;;;;;;;19.33;57.44;102761.06;5302743;28;20446;-77
2022/04/30 08:02:59;;;;;;;5.47;3.90;;;;;;;19.73;53.28;102757.03;5304538;28;20028;-77
2022/04/30 08:05:30;;;;;;;5.40;3.92;;;;;;;18.85;54.83;102765.78;5301651;28;20020;-76
2022/04/30 08:08:02;;;;;;;5.22;3.70;;;;;;;19.42;55.71;102752.00;5301974;28;20032;-77
2022/04/30 08:10:33;;;;;;;6.15;3.55;;;;;;;18.97;54.65;102750.19;5296418;27;20047;-76
2022/04/30 08:13:06;;;;;;;6.88;3.90;;;;;;;17.84;57.78;102750.09;5302189;28;20032;-76
2022/04/30 08:15:43;;;;;;;9.02;3.47;;;;;;;18.68;59.77;102749.31;5303235;28;20039;-76
2022/04/30 08:18:14;;;;;;;7.30;3.35;;;;;;;20.13;55.75;102763.78;5285111;28;20095;-77
2022/04/30 08:20:46;;;;;;;4.43;3.40;;;;;;;21.65;47.93;102749.41;5301494;28;20033;-77
2022/04/30 08:23:18;;;;;;;6.35;3.33;;;;;;;22.43;42.86;102747.97;5301549;28;20092;-77
2022/04/30 08:25:49;;;;;;;5.88;3.15;;;;;;;22.24;40.97;102749.16;5298782;28;20114;-77
2022/04/30 08:28:21;;;;;;;7.05;3.33;;;;;;;20.88;42.72;102747.75;5302348;28;20013;-77
2022/04/30 08:30:52;;;;;;;8.05;3.40;;;;;;;20.31;45.04;102742.88;5301822;28;20056;-77
2022/04/30 08:33:24;;;;;;;5.85;3.10;;;;;;;18.85;47.71;102749.56;5304136;28;20031;-76
2022/04/30 08:35:56;;;;;;;4.80;3.60;;;;;;;17.33;53.91;102745.88;5302769;28;20024;-77
2022/04/30 08:38:27;;;;;;;6.32;3.70;;;;;;;16.81;64.12;102746.88;5303559;28;20047;-76
2022/04/30 08:40:58;;;;;;;7.53;4.15;;;;;;;15.70;84.44;102752.91;5303722;28;20028;-77
2022/04/30 08:43:32;;;;;;;7.15;3.90;;;;;;;15.39;86.11;102736.69;5301411;28;20122;-77
2022/04/30 08:46:03;;;;;;;7.43;3.80;;;;;;;14.74;98.11;102749.13;5303525;28;20070;-76
2022/04/30 08:48:35;;;;;;;11.40;4.00;;;;;;;14.22;100.00;102742.50;5307658;27;20029;-76
2022/04/30 08:51:06;;;;;;;5.82;4.00;;;;;;;14.10;100.00;102728.25;5307451;28;20029;-76
2022/04/30 08:53:38;;;;;;;8.20;4.43;;;;;;;13.66;100.00;102741.41;5299559;28;20482;-77
2022/04/30 08:56:10;;;;;;;7.18;4.32;;;;;;;13.59;100.00;102734.81;5305848;28;20034;-76
2022/04/30 08:58:41;;;;;;;9.20;4.45;;;;;;;14.15;100.00;102728.72;5298771;28;20044;-77
2022/04/30 09:01:13;;;;;;;5.97;4.65;;;;;;;14.12;100.00;102726.28;5298832;28;20036;-76
2022/04/30 09:03:46;;;;;;;7.70;4.43;;;;;;;14.83;100.00;102732.31;5301697;28;20474;-77
2022/04/30 09:06:18;;;;;;;9.60;4.40;;;;;;;15.07;100.00;102728.56;5301640;28;20020;-77
2022/04/30 09:08:51;;;;;;;8.63;5.28;;;;;;;15.16;100.00;102737.72;5305758;28;20440;-76
2022/04/30 09:11:28;;;;;;;8.32;4.45;;;;;;;15.36;100.00;102728.84;5299700;28;20029;-76
2022/04/30 09:13:59;;;;;;;7.13;3.92;;;;;;;15.15;97.68;102733.31;5310886;28;33028;-76
2022/04/30 09:16:30;;;;;;;5.70;4.05;;;;;;;14.78;97.63;102723.75;5299108;28;20103;-76
2022/04/30 09:19:03;;;;;;;6.30;3.85;;;;;;;14.84;98.07;102738.53;5308498;28;20378;-76
2022/04/30 09:21:35;;;;;;;7.35;3.95;;;;;;;14.92;100.00;102728.00;5302858;28;20037;-76
2022/04/30 09:24:08;;;;;;;7.60;3.88;;;;;;;14.66;99.36;102722.91;5301747;28;20024;-76
2022/04/30 09:26:40;;;;;;;7.07;4.18;;;;;;;14.77;99.54;102721.19;5301309;28;20086;-76
2022/04/30 09:29:24;;;;;;;6.45;4.43;;;;;;;14.98;99.52;102718.59;5303607;28;20090;-76
2022/04/30 09:31:55;;;;;;;7.40;4.25;;;;;;;14.81;97.96;102719.97;5302070;28;20036;-76
2022/04/30 09:37:42;;;;;;;8.55;4.40;;;;;;;14.68;100.00;102720.94;5300206;28;20108;-76
2022/04/30 09:40:13;;;;;;;7.13;4.47;;;;;;;14.40;100.00;102716.06;5302417;28;20082;-76
2022/04/30 09:42:46;;;;;;;6.68;4.47;;;;;;;14.30;100.00;102713.25;5301156;28;20040;-75
2022/04/30 09:45:29;;;;;;;8.25;4.38;;;;;;;14.68;100.00;102712.88;5297239;28;20911;-75
2022/04/30 09:53:56;;;;;;;5.88;4.00;;;;;;;14.80;97.60;102711.06;5297036;28;20025;-75
2022/04/30 09:54:03;;;;;;;6.03;3.85;;;;;;;15.02;87.96;102699.38;5299131;28;20525;-76
2022/04/30 09:56:40;;;;;;;5.60;3.70;;;;;;;16.20;81.15;102701.16;5299306;28;20020;-76
2022/04/30 09:59:12;;;;;;;;;;;;;;;17.42;69.01;102695.63;5297575;28;20079;-76
2022/04/30 10:01:47;;;;;;;5.75;3.92;;;;;;;17.16;64.52;102694.34;5300649;28;19920;-76
2022/04/30 10:04:19;;;;;;;8.38;3.83;;;;;;;17.53;62.30;102695.47;5296547;28;20435;-76
2022/04/30 10:06:53;;;;;;;6.38;3.42;;;;;;;18.65;56.21;102697.41;5306717;28;20390;-76
2022/04/30 10:09:30;;;;;;;3.80;3.08;;;;;;;19.06;50.17;102685.22;5301831;28;20086;-76
2022/04/30 10:12:24;;;;;;;4.43;3.10;;;;;;;18.94;50.37;102693.72;5300384;28;20074;-76
2022/04/30 10:15:14;;;;;;;6.00;3.30;;;;;;;18.36;50.56;102681.38;5300566;27;20024;-76
2022/04/30 10:17:48;;;;;;;4.53;3.30;;;;;;;18.30;49.77;102685.50;5293526;28;20062;-76
2022/04/30 10:20:29;;;;;;;5.28;3.28;;;;;;;18.46;50.73;102676.75;5292574;28;20040;-76
2022/04/30 10:23:02;;;;;;;5.70;3.63;;;;;;;18.53;50.64;102677.88;5294386;28;20478;-76
2022/04/30 10:25:42;;;;;;;4.75;3.30;;;;;;;19.59;48.74;102679.94;5294422;28;20032;-76
2022/04/30 10:28:17;;;;;;;4.95;2.95;;;;;;;20.01;44.16;102673.81;5294735;27;20036;-76
2022/04/30 10:31:07;;;;;;;6.53;3.40;;;;;;;20.05;43.88;102672.47;5296440;28;20439;-76
2022/04/30 10:33:49;;;;;;;4.68;3.53;;;;;;;19.08;44.43;102676.97;5292548;28;20428;-76
2022/04/30 10:36:21;;;;;;;7.72;2.70;;;;;;;18.27;42.82;102664.22;5307109;28;20506;-76
2022/04/30 10:38:59;;;;;;;7.95;3.42;;;;;;;18.51;43.46;102674.44;5300225;28;20040;-76
2022/04/30 10:41:45;;;;;;;5.93;2.55;;;;;;;18.33;44.41;102660.91;5300583;28;20013;-76
2022/04/30 10:44:27;;;;;;;7.20;2.58;;;;;;;18.09;44.15;102665.00;5298951;28;20024;-76
2022/04/30 10:47:10;;;;;;;3.97;2.35;;;;;;;18.81;46.87;102661.59;5301255;28;20028;-76
2022/04/30 10:49:41;;;;;;;6.00;2.58;;;;;;;21.90;38.30;102653.31;5304635;28;20500;-76
2022/04/30 10:52:21;;;;;;;4.07;2.40;;;;;;;25.94;32.68;102653.38;5303062;27;20154;-76
2022/04/30 10:54:58;;;;;;;4.57;1.98;;;;;;;27.48;28.70;102651.09;5298900;28;20024;-77
2022/04/30 10:57:40;;;;;;;2.83;2.08;;;;;;;28.27;26.96;102643.75;5294570;28;20024;-76
2022/04/30 11:00:13;;;;;;;5.65;2.13;;;;;;;28.05;24.75;102640.44;5304117;28;20028;-76
2022/04/30 11:02:44;;;;;;;4.13;2.08;;;;;;;26.94;26.14;102637.34;5303990;27;20036;-76
2022/04/30 11:05:23;;;;;;;2.30;1.83;;;;;;;26.76;26.25;102631.66;5304135;28;20051;-75
2022/04/30 11:07:54;;;;;;;4.07;2.17;;;;;;;25.48;26.19;102626.56;5289079;28;20303;-76
2022/04/30 11:10:25;;;;;;;4.55;2.67;;;;;;;25.33;27.29;102621.19;5299668;28;20013;-75
2022/04/30 11:13:06;;;;;;;5.38;2.42;;;;;;;25.41;28.76;102628.41;5288355;28;20124;-76
2022/04/30 11:15:37;;;;;;;4.05;2.65;;;;;;;28.27;25.65;102630.84;5305296;28;20359;-76
2022/04/30 11:18:09;;;;;;;3.35;2.30;;;;;;;30.00;23.35;102621.47;5306056;28;20031;-76
2022/04/30 11:20:40;;;;;;;5.43;2.45;;;;;;;30.10;24.02;102614.38;5307290;27;20024;-76
2022/04/30 11:23:22;;;;;;;4.63;1.85;;;;;;;33.68;21.59;102604.91;5304950;28;20371;-76
2022/04/30 11:25:54;;;;;;;3.78;2.00;;;;;;;33.46;20.20;102611.25;5303455;28;20037;-76
2022/04/30 11:28:29;;;;;;;4.43;2.40;;;;;;;34.89;18.46;102602.94;5302900;28;20478;-76
2022/04/30 11:31:01;;;;;;;3.38;2.15;;;;;;;34.73;17.94;102596.44;5302678;28;20123;-77
2022/04/30 11:33:33;;;;;;;5.97;1.92;;;;;;;37.03;17.31;102598.47;5300009;28;20170;-76
2022/04/30 11:36:05;;;;;;;3.63;1.85;;;;;;;36.49;16.21;102599.84;5299576;28;20044;-76
2022/04/30 11:38:36;;;;;;;3.25;2.40;;;;;;;33.66;17.63;102593.25;5300375;28;20402;-76
2022/04/30 11:41:10;;;;;;;3.60;2.00;;;;;;;29.74;19.19;102590.47;5292242;28;20125;-76
2022/04/30 11:43:41;;;;;;;3.75;2.30;;;;;;;27.96;20.94;102590.47;5298802;28;20270;-76
2022/04/30 11:46:14;;;;;;;4.03;2.00;;;;;;;26.52;23.16;102589.25;5295763;28;20036;-76
2022/04/30 11:48:45;;;;;;;3.97;2.30;;;;;;;25.00;25.29;102580.81;5302697;28;20029;-76
2022/04/30 11:51:18;;;;;;;4.82;3.50;;;;;;;23.84;28.06;102588.91;5298810;28;20358;-76
2022/04/30 11:53:49;;;;;;;5.78;3.95;;;;;;;21.97;31.17;102585.56;5299390;28;20078;-76
2022/04/30 11:56:21;;;;;;;8.05;4.38;;;;;;;19.97;34.69;102575.78;5308482;27;20020;-76
2022/04/30 11:58:52;;;;;;;5.95;3.90;;;;;;;18.50;38.27;102584.44;5314735;27;20035;-76
2022/04/30 12:01:26;;;;;;;9.02;4.47;;;;;;;18.12;40.94;102589.06;5312321;27;20035;-75
2022/04/30 12:04:08;;;;;;;6.60;4.30;;;;;;;17.18;43.83;102584.50;5312267;28;20123;-75
2022/04/30 12:06:42;;;;;;;13.98;4.55;;;;;;;16.61;47.54;102581.63;5305419;28;20346;-75
2022/04/30 12:09:16;;;;;;;7.10;4.50;;;;;;;16.20;50.52;102585.38;5311050;27;20035;-75
2022/04/30 12:11:53;;;;;;;7.13;4.38;;;;;;;15.75;55.07;102578.53;5300439;28;20028;-75